General Aviation Weather

Text Reports

Enter one or more of the following location identifiers separated by a space:

Zip Code, Four-Character ICAO or Three-Character IATA airport codes.

METAR - Aviation Routine Weather Report
ENNK - Narvik Iii,
Updated at 11:50 AM GMT on July 07, 2015 (1:50 PM CEST):
METAR ENNK 071150Z 29004KT 9999 FEW025 BKN060 14/10 Q1000
TAF - Terminal Area Forecast
ENNK - Narvik Iii,
Updated at 11:50 AM GMT on July 07, 2015 (1:50 PM CEST):
No TAF is currently available for this location.
Decoded:
No decoded TAF is available.
PIREP - Pilot Weather Report
ENNK - Narvik Iii,
Updated at 11:50 AM GMT on July 07, 2015 (1:50 PM CEST):
No PIREP is currently available for this location.
AIRMET - Airmens Meteorological Information
ENNK - Narvik Iii,
Updated at 11:50 AM GMT on July 07, 2015 (1:50 PM CEST):
No AIRMET is currently available for this location.
SIGMET - Significant Meteorological Information
ENNK - Narvik Iii,
Updated at 11:50 AM GMT on July 07, 2015 (1:50 PM CEST):
No SIGMET is currently available for this location.
NOTAM - Notice to Airmen
ENNK - Narvik Iii,
Updated at 11:50 AM GMT on July 07, 2015 (1:50 PM CEST):
No NOTAM is currently available for this location.
Forecast Area
ENNK - Narvik Iii,
Updated at 11:50 AM GMT on July 07, 2015 (1:50 PM CEST):
No NOTAM is currently available for this location.
Aviation Weather Maps